Time;durP1;ratioP1;P1;durP2;ratioP2;P2;SDS_P1;SDS_P2;PMS_P1;PMS_P2;Temp;Humidity;BMP_temperature;BMP_pressure;BME280_temperature;BME280_humidity;BME280_pressure;Samples;Min_cycle;Max_cycle;Signal;HPM_P1;HPM_P2
2021/10/22 00:00:57;;;;;;;8.10;4.22;;;14.50;55.40;;;;;;5052095;28;20079;-64
2021/10/22 00:03:23;;;;;;;9.07;4.47;;;14.50;55.50;;;;;;5032932;28;20588;-66
2021/10/22 00:05:49;;;;;;;8.35;3.75;;;14.40;55.60;;;;;;5033901;28;20060;-71
2021/10/22 00:08:15;;;;;;;10.45;3.08;;;14.40;55.50;;;;;;5051558;28;20528;-70
2021/10/22 00:10:41;;;;;;;7.20;3.20;;;14.40;55.30;;;;;;5033507;28;20470;-70
2021/10/22 00:13:08;;;;;;;9.38;2.97;;;14.40;55.20;;;;;;5051267;28;20029;-71
2021/10/22 00:15:34;;;;;;;5.97;2.83;;;14.40;55.10;;;;;;5051031;28;20029;-66
2021/10/22 00:18:00;;;;;;;10.88;2.97;;;14.40;55.10;;;;;;5051450;28;20028;-66
2021/10/22 00:20:26;;;;;;;8.90;3.08;;;14.40;55.00;;;;;;5050915;28;20063;-65
2021/10/22 00:22:52;;;;;;;5.72;2.47;;;14.40;54.90;;;;;;5051555;28;20033;-66
2021/10/22 00:25:19;;;;;;;8.57;2.83;;;14.40;54.80;;;;;;5051164;28;20470;-68
2021/10/22 00:27:45;;;;;;;6.50;2.50;;;14.40;54.60;;;;;;5051382;28;20374;-67
2021/10/22 00:30:11;;;;;;;7.60;2.63;;;14.40;54.50;;;;;;5033671;28;20032;-66
2021/10/22 00:32:37;;;;;;;5.53;2.33;;;14.40;54.30;;;;;;5051416;28;20029;-66
2021/10/22 00:35:03;;;;;;;7.05;2.42;;;14.40;54.20;;;;;;5051179;28;20139;-66
2021/10/22 00:37:29;;;;;;;8.27;2.65;;;14.40;54.10;;;;;;5051213;28;20051;-65
2021/10/22 00:39:55;;;;;;;7.68;2.83;;;14.50;54.10;;;;;;5051720;28;20021;-67
2021/10/22 00:42:23;;;;;;;4.95;2.50;;;14.40;54.10;;;;;;5033317;28;20029;-65
2021/10/22 00:44:50;;;;;;;6.57;2.70;;;14.40;54.10;;;;;;5050285;28;20425;-66
2021/10/22 00:47:17;;;;;;;8.70;2.70;;;14.50;54.10;;;;;;5050984;28;20421;-65
2021/10/22 00:49:45;;;;;;;8.18;2.75;;;14.50;54.10;;;;;;5039801;28;20363;-64
2021/10/22 00:52:12;;;;;;;7.63;2.17;;;14.40;54.60;;;;;;5043017;28;20482;-67
2021/10/22 00:54:41;;;;;;;4.97;2.25;;;14.50;54.00;;;;;;5039950;28;20032;-65
2021/10/22 00:57:11;;;;;;;5.32;2.35;;;14.50;53.90;;;;;;5043873;28;20474;-64
2021/10/22 00:59:38;;;;;;;5.38;2.40;;;14.50;53.60;;;;;;5045733;28;20033;-65
2021/10/22 01:02:03;;;;;;;6.70;2.58;;;14.50;53.50;;;;;;5046519;28;20029;-64
2021/10/22 01:04:29;;;;;;;7.13;2.13;;;14.50;53.30;;;;;;5049845;28;20131;-65
2021/10/22 01:06:55;;;;;;;9.40;1.92;;;14.60;53.10;;;;;;5054818;28;20383;-65
2021/10/22 01:09:23;;;;;;;6.70;1.85;;;14.60;52.90;;;;;;5054927;28;20025;-65
2021/10/22 01:11:49;;;;;;;6.30;1.73;;;14.60;52.70;;;;;;5054786;28;20082;-64
2021/10/22 01:14:16;;;;;;;5.32;1.65;;;14.60;52.50;;;;;;5055035;28;20110;-64
2021/10/22 01:16:42;;;;;;;8.15;1.50;;;14.70;52.40;;;;;;5054209;28;20246;-65
2021/10/22 01:19:14;;;;;;;4.45;1.40;;;14.70;52.20;;;;;;5054943;28;20219;-65
2021/10/22 01:21:41;;;;;;;7.40;1.65;;;14.70;52.10;;;;;;5054421;28;20032;-65
2021/10/22 01:24:06;;;;;;;5.78;1.70;;;14.70;51.90;;;;;;5036598;28;20029;-66
2021/10/22 01:26:32;;;;;;;6.20;1.50;;;14.80;51.80;;;;;;5054286;28;20462;-65
2021/10/22 01:28:59;;;;;;;5.05;1.65;;;14.80;51.70;;;;;;5054636;28;20378;-66
2021/10/22 01:31:26;;;;;;;10.63;1.98;;;14.80;51.60;;;;;;5053752;28;20040;-65
2021/10/22 01:33:53;;;;;;;3.70;1.55;;;14.90;51.60;;;;;;5048681;28;20493;-66
2021/10/22 01:36:19;;;;;;;6.13;1.80;;;14.90;51.40;;;;;;5047817;28;20029;-65
2021/10/22 01:38:46;;;;;;;5.90;1.67;;;15.00;51.30;;;;;;5039086;28;20021;-65
2021/10/22 01:41:13;;;;;;;4.88;1.85;;;15.10;51.10;;;;;;5054588;28;20090;-65
2021/10/22 01:43:41;;;;;;;4.50;1.35;;;15.10;51.00;;;;;;5053897;28;20025;-65
2021/10/22 01:46:07;;;;;;;5.38;1.65;;;15.20;50.90;;;;;;5054510;28;20072;-65
2021/10/22 01:48:33;;;;;;;3.97;1.50;;;15.30;50.70;;;;;;5054266;28;20033;-65
2021/10/22 01:50:59;;;;;;;5.70;1.98;;;15.30;50.60;;;;;;5053904;28;20405;-64
2021/10/22 01:53:25;;;;;;;5.28;2.00;;;15.30;50.40;;;;;;5053597;28;20033;-65
2021/10/22 01:55:51;;;;;;;8.55;1.90;;;15.30;50.40;;;;;;5054357;28;20036;-65
2021/10/22 01:58:17;;;;;;;6.65;2.22;;;15.30;50.50;;;;;;5054328;28;20029;-65
2021/10/22 02:00:43;;;;;;;8.23;2.00;;;15.20;50.60;;;;;;5053770;28;20027;-65
2021/10/22 02:03:09;;;;;;;7.90;1.88;;;15.20;50.80;;;;;;5054019;28;20047;-66
2021/10/22 02:05:35;;;;;;;8.50;1.98;;;15.10;50.90;;;;;;5035504;28;20029;-65
2021/10/22 02:08:01;;;;;;;7.10;2.10;;;15.10;51.70;;;;;;5052413;28;20554;-65
2021/10/22 02:10:27;;;;;;;5.82;1.90;;;15.10;51.20;;;;;;5035862;28;20466;-66
2021/10/22 02:12:53;;;;;;;7.75;1.90;;;15.20;51.30;;;;;;5053616;28;20025;-65
2021/10/22 02:15:19;;;;;;;6.18;1.58;;;15.20;51.20;;;;;;5053561;28;20108;-66
2021/10/22 02:17:44;;;;;;;6.43;2.00;;;15.20;51.10;;;;;;5053242;28;20029;-65
2021/10/22 02:20:11;;;;;;;5.05;1.48;;;15.30;51.10;;;;;;5053886;28;20029;-65
2021/10/22 02:22:36;;;;;;;6.28;1.77;;;15.30;50.90;;;;;;5035568;28;20033;-64
2021/10/22 02:25:03;;;;;;;5.65;2.00;;;15.40;50.90;;;;;;5035396;28;20352;-65
2021/10/22 02:27:29;;;;;;;5.38;1.40;;;15.30;51.00;;;;;;5052723;28;20025;-65
2021/10/22 02:29:55;;;;;;;6.00;1.60;;;15.30;51.10;;;;;;5053476;28;20036;-65
2021/10/22 02:32:20;;;;;;;4.80;1.60;;;15.30;51.20;;;;;;5053639;28;20058;-65
2021/10/22 02:34:46;;;;;;;5.28;1.45;;;15.30;51.20;;;;;;5052297;28;20234;-64
2021/10/22 02:37:12;;;;;;;6.28;1.75;;;15.30;51.30;;;;;;5053675;28;20409;-65
2021/10/22 02:39:39;;;;;;;10.88;2.08;;;15.20;51.30;;;;;;5053073;28;20031;-65
2021/10/22 02:42:06;;;;;;;4.43;1.55;;;15.20;51.30;;;;;;5053485;28;20043;-65
2021/10/22 02:44:33;;;;;;;5.30;2.35;;;15.20;51.40;;;;;;5052428;28;20036;-64
2021/10/22 02:46:59;;;;;;;3.00;1.60;;;15.10;52.60;;;;;;5053517;28;20021;-64
2021/10/22 02:49:26;;;;;;;4.57;1.50;;;15.10;52.20;;;;;;5053203;28;20056;-65
2021/10/22 02:51:54;;;;;;;3.33;1.40;;;15.00;52.60;;;;;;5052155;28;20520;-65
2021/10/22 02:54:24;;;;;;;3.78;1.40;;;15.00;52.20;;;;;;5052785;28;20104;-65
2021/10/22 02:56:50;;;;;;;5.32;1.42;;;15.00;52.30;;;;;;5034277;28;20048;-64
2021/10/22 02:59:16;;;;;;;2.78;1.33;;;15.00;52.50;;;;;;5052541;28;20154;-64
2021/10/22 03:01:42;;;;;;;5.63;1.70;;;14.90;52.90;;;;;;5052204;28;20055;-66
2021/10/22 03:04:09;;;;;;;4.80;2.00;;;14.90;53.00;;;;;;5052745;28;20113;-65
2021/10/22 03:06:38;;;;;;;6.68;2.00;;;14.90;53.20;;;;;;5051801;28;20110;-66
2021/10/22 03:09:04;;;;;;;4.72;1.80;;;14.90;53.60;;;;;;5052541;28;20044;-64
2021/10/22 03:11:30;;;;;;;6.13;1.45;;;14.90;54.10;;;;;;5033742;28;20559;-64
2021/10/22 03:13:55;;;;;;;5.03;1.98;;;14.90;53.70;;;;;;5052498;28;20105;-65
2021/10/22 03:16:21;;;;;;;5.60;1.73;;;14.90;53.50;;;;;;5034213;28;20028;-65
2021/10/22 03:18:48;;;;;;;7.40;1.50;;;14.90;53.50;;;;;;5051590;28;20167;-65
2021/10/22 03:21:16;;;;;;;5.95;1.73;;;14.80;53.40;;;;;;5052297;28;20032;-64
2021/10/22 03:23:42;;;;;;;8.85;2.40;;;14.80;53.50;;;;;;5051769;28;20033;-65
2021/10/22 03:26:08;;;;;;;5.97;1.80;;;14.80;53.80;;;;;;5051969;28;20036;-65
2021/10/22 03:28:34;;;;;;;5.38;1.50;;;14.80;53.70;;;;;;5033930;28;20055;-65
2021/10/22 03:30:59;;;;;;;5.05;1.65;;;14.80;53.90;;;;;;5034256;28;20029;-65
2021/10/22 03:33:25;;;;;;;5.30;1.58;;;14.80;53.90;;;;;;5051808;28;20029;-64
2021/10/22 03:35:51;;;;;;;3.08;1.52;;;14.80;54.30;;;;;;5051445;28;20029;-65
2021/10/22 03:38:17;;;;;;;7.38;1.88;;;14.80;54.10;;;;;;5051847;28;20033;-64
2021/10/22 03:40:42;;;;;;;6.20;1.80;;;14.80;54.20;;;;;;5051363;28;20079;-65
2021/10/22 03:43:08;;;;;;;5.70;1.95;;;14.80;54.40;;;;;;5051700;28;20175;-65
2021/10/22 03:45:34;;;;;;;4.43;1.70;;;14.80;54.40;;;;;;5051787;28;20037;-65
2021/10/22 03:48:00;;;;;;;4.07;1.63;;;14.80;54.30;;;;;;5051665;28;20032;-65
2021/10/22 03:50:26;;;;;;;6.18;1.60;;;14.80;54.40;;;;;;5060602;28;20063;-65
2021/10/22 03:52:53;;;;;;;3.75;1.52;;;14.80;54.40;;;;;;5071093;28;20050;-65
2021/10/22 03:55:19;;;;;;;6.30;1.50;;;14.80;54.50;;;;;;5071757;28;20098;-65
2021/10/22 03:57:45;;;;;;;7.78;1.85;;;14.80;54.40;;;;;;5071063;28;20461;-65
2021/10/22 04:00:12;;;;;;;6.30;1.52;;;14.80;54.60;;;;;;5070552;28;20035;-65
2021/10/22 04:02:39;;;;;;;5.13;1.60;;;14.80;54.60;;;;;;5070953;28;20064;-66
2021/10/22 04:05:07;;;;;;;10.55;1.92;;;14.80;54.50;;;;;;5070493;28;20032;-64
2021/10/22 04:07:34;;;;;;;6.03;1.75;;;14.80;54.50;;;;;;5071457;28;20058;-64
2021/10/22 04:10:01;;;;;;;5.30;1.52;;;14.90;54.40;;;;;;5070431;28;20126;-64
2021/10/22 04:12:26;;;;;;;6.20;1.70;;;14.90;54.40;;;;;;5071301;28;20033;-64
2021/10/22 04:14:52;;;;;;;8.27;1.92;;;14.90;54.30;;;;;;5069758;28;20476;-64
2021/10/22 04:17:18;;;;;;;5.38;1.30;;;15.00;54.30;;;;;;5070065;28;20021;-65
2021/10/22 04:19:44;;;;;;;6.72;1.45;;;15.00;54.20;;;;;;5071009;28;20450;-64
2021/10/22 04:22:11;;;;;;;3.15;1.40;;;15.00;54.20;;;;;;5070138;28;20113;-64
2021/10/22 04:24:37;;;;;;;6.82;1.60;;;15.00;54.20;;;;;;5071106;28;20024;-66
2021/10/22 04:27:02;;;;;;;8.30;1.77;;;15.00;54.30;;;;;;5071451;28;20426;-65
2021/10/22 04:29:29;;;;;;;6.45;1.85;;;14.90;54.30;;;;;;5071144;28;20457;-65
2021/10/22 04:31:55;;;;;;;5.68;1.50;;;14.90;54.40;;;;;;5071830;28;20436;-65
2021/10/22 04:34:23;;;;;;;7.25;2.03;;;14.90;54.70;;;;;;5075284;28;20036;-65
2021/10/22 04:36:49;;;;;;;6.03;1.88;;;14.90;54.80;;;;;;5074815;28;20474;-65
2021/10/22 04:41:59;;;;;;;5.55;1.95;;;14.90;54.90;;;;;;5075711;28;20043;-66
2021/10/22 04:44:30;;;;;;;7.38;2.15;;;15.00;55.00;;;;;;5075190;28;20107;-65
2021/10/22 04:46:57;;;;;;;7.43;1.75;;;15.00;54.80;;;;;;5074130;28;20119;-65
2021/10/22 04:49:23;;;;;;;7.97;1.52;;;15.00;54.70;;;;;;5073716;28;20052;-65
2021/10/22 04:51:49;;;;;;;7.63;1.92;;;15.10;54.80;;;;;;5073348;28;20195;-65
2021/10/22 04:54:14;;;;;;;6.18;2.10;;;15.10;54.80;;;;;;5075226;28;20029;-65
2021/10/22 04:56:40;;;;;;;3.33;1.33;;;15.10;54.70;;;;;;5073241;28;20502;-64
2021/10/22 04:59:06;;;;;;;8.45;2.00;;;15.10;54.70;;;;;;5074908;28;20027;-65
2021/10/22 05:01:31;;;;;;;4.78;1.77;;;15.10;54.70;;;;;;5074572;28;20021;-65
2021/10/22 05:03:57;;;;;;;6.85;2.28;;;15.20;54.70;;;;;;5073689;28;20096;-65
2021/10/22 05:06:23;;;;;;;8.15;1.90;;;15.20;54.70;;;;;;5073836;28;20441;-64
2021/10/22 05:08:49;;;;;;;6.30;2.00;;;15.20;54.70;;;;;;5072905;28;20167;-65
2021/10/22 05:11:14;;;;;;;7.13;2.25;;;15.10;54.80;;;;;;5074592;28;20024;-65
2021/10/22 05:13:40;;;;;;;7.40;2.03;;;15.20;54.80;;;;;;5073491;28;20397;-64
2021/10/22 05:16:06;;;;;;;8.68;2.40;;;15.20;54.70;;;;;;5073103;28;20389;-64
2021/10/22 05:18:32;;;;;;;7.78;2.08;;;15.20;54.70;;;;;;5073881;28;20024;-65
2021/10/22 05:20:58;;;;;;;7.22;2.90;;;15.30;54.70;;;;;;5073490;28;20400;-65
2021/10/22 05:23:24;;;;;;;7.72;1.98;;;15.30;54.50;;;;;;5074353;28;20035;-65
2021/10/22 05:25:50;;;;;;;8.70;2.92;;;15.30;54.50;;;;;;5073927;28;20103;-65
2021/10/22 05:28:16;;;;;;;7.03;2.50;;;15.40;55.20;;;;;;5072950;28;20028;-67
2021/10/22 05:30:42;;;;;;;6.00;2.22;;;15.40;54.50;;;;;;5072197;28;20040;-65
2021/10/22 05:33:11;;;;;;;4.55;1.90;;;15.40;54.50;;;;;;5074253;28;20116;-67
2021/10/22 05:35:37;;;;;;;19.77;2.20;;;15.40;54.60;;;;;;5074088;28;20461;-66
2021/10/22 05:38:04;;;;;;;5.65;1.77;;;15.40;54.70;;;;;;5074308;28;20036;-66
2021/10/22 05:40:31;;;;;;;5.43;1.80;;;15.30;54.90;;;;;;5074400;28;20064;-67
2021/10/22 05:42:57;;;;;;;6.28;2.00;;;15.30;55.10;;;;;;5073156;28;20036;-67
2021/10/22 05:45:22;;;;;;;5.43;1.67;;;15.30;55.30;;;;;;5074152;28;20081;-68
2021/10/22 05:47:48;;;;;;;8.63;2.03;;;15.30;55.50;;;;;;5073616;28;20385;-67
2021/10/22 05:50:14;;;;;;;6.43;2.00;;;15.30;55.50;;;;;;5060344;28;20055;-68
2021/10/22 05:52:40;;;;;;;7.10;1.83;;;15.30;55.70;;;;;;5053476;28;20470;-68
2021/10/22 05:55:06;;;;;;;7.20;1.75;;;15.40;55.80;;;;;;5036164;28;20029;-66
2021/10/22 05:57:32;;;;;;;11.20;1.95;;;15.40;56.10;;;;;;5053234;28;20029;-65
2021/10/22 05:59:58;;;;;;;8.15;2.38;;;15.40;56.30;;;;;;5054149;28;20021;-67
2021/10/22 06:02:23;;;;;;;9.23;2.75;;;15.40;56.30;;;;;;5053849;28;20106;-67
2021/10/22 06:04:49;;;;;;;8.35;2.25;;;15.40;56.40;;;;;;5018527;28;20071;-66
2021/10/22 06:07:15;;;;;;;11.35;2.50;;;15.40;56.90;;;;;;5036142;28;20063;-66
2021/10/22 06:09:41;;;;;;;6.30;2.00;;;15.40;56.90;;;;;;5053808;28;20048;-69
2021/10/22 06:12:07;;;;;;;9.63;2.20;;;15.40;56.70;;;;;;5053509;28;20025;-67
2021/10/22 06:14:33;;;;;;;7.50;2.13;;;15.40;56.70;;;;;;5053502;28;20123;-68
2021/10/22 06:17:01;;;;;;;10.85;2.15;;;15.50;57.00;;;;;;5053671;28;20025;-68
2021/10/22 06:19:31;;;;;;;6.75;2.40;;;15.50;56.90;;;;;;5035693;28;20067;-67
2021/10/22 06:24:34;;;;;;;8.70;1.95;;;15.50;56.90;;;;;;5053397;28;20033;-66
2021/10/22 06:26:59;;;;;;;9.20;2.72;;;15.60;57.10;;;;;;5035510;28;20025;-68
2021/10/22 06:29:25;;;;;;;9.23;2.22;;;15.50;57.30;;;;;;5053450;28;20082;-68
2021/10/22 06:31:51;;;;;;;7.68;2.00;;;15.50;57.30;;;;;;5034958;28;20495;-66
2021/10/22 06:34:19;;;;;;;7.13;1.75;;;15.50;58.00;;;;;;5035549;28;20024;-67
2021/10/22 06:36:45;;;;;;;11.80;2.15;;;15.60;58.70;;;;;;5034745;28;20025;-68
2021/10/22 06:39:11;;;;;;;8.05;2.10;;;15.50;59.00;;;;;;5053097;28;20029;-67
2021/10/22 06:41:37;;;;;;;8.38;1.92;;;15.60;58.80;;;;;;5034958;28;20028;-66
2021/10/22 06:44:03;;;;;;;7.70;2.20;;;15.60;58.70;;;;;;5035481;28;20063;-68
2021/10/22 06:46:29;;;;;;;5.20;1.80;;;15.70;58.40;;;;;;5035211;28;20025;-68
2021/10/22 06:48:55;;;;;;;8.40;2.17;;;15.80;58.10;;;;;;5052415;28;20082;-66
2021/10/22 06:51:22;;;;;;;6.72;1.73;;;15.90;57.90;;;;;;5035095;28;20025;-67
2021/10/22 06:53:48;;;;;;;6.47;2.58;;;15.90;58.30;;;;;;5034188;28;20082;-67
2021/10/22 06:56:14;;;;;;;7.25;1.52;;;15.80;58.00;;;;;;5035088;28;20021;-68
2021/10/22 06:58:39;;;;;;;6.82;1.80;;;15.80;58.10;;;;;;5052003;28;20165;-69
2021/10/22 07:01:06;;;;;;;7.15;1.75;;;16.00;57.70;;;;;;5018329;28;20025;-68
2021/10/22 07:04:08;;;;;;;11.85;2.00;;;16.10;57.30;;;;;;5052814;28;20104;-67
2021/10/22 07:09:09;;;;;;;4.85;1.48;;;17.10;56.50;;;;;;5052771;28;20028;-67
2021/10/22 07:11:34;;;;;;;3.65;1.92;;;19.00;52.10;;;;;;5051826;28;20458;-68
2021/10/22 07:14:01;;;;;;;7.30;6.45;;;19.30;50.80;;;;;;5052537;28;20032;-61
2021/10/22 07:16:29;;;;;;;7.85;6.90;;;20.50;49.40;;;;;;5034430;28;20032;-63
2021/10/22 07:18:54;;;;;;;8.82;5.88;;;22.10;46.70;;;;;;5052063;28;20025;-66
2021/10/22 07:21:20;;;;;;;4.80;4.13;;;24.90;42.70;;;;;;5052556;28;20040;-66
2021/10/22 07:23:48;;;;;;;5.32;4.18;;;27.40;38.70;;;;;;5034080;28;20029;-65
2021/10/22 07:26:16;;;;;;;11.65;4.72;;;29.20;35.40;;;;;;5052473;28;20029;-67
2021/10/22 07:28:42;;;;;;;4.35;3.95;;;30.40;33.70;;;;;;5033917;28;20128;-67
2021/10/22 07:31:27;;;;;;;8.65;4.38;;;31.40;31.70;;;;;;5034015;28;20067;-66
2021/10/22 07:33:52;;;;;;;5.97;4.28;;;32.10;30.30;;;;;;5033993;28;20330;-67
2021/10/22 07:36:18;;;;;;;6.32;1.83;;;32.90;29.70;;;;;;5051685;28;20385;-66
2021/10/22 07:38:45;;;;;;;5.32;1.50;;;32.80;29.10;;;;;;5050692;28;20047;-66
2021/10/22 07:41:13;;;;;;;3.63;1.65;;;30.60;29.50;;;;;;5033260;28;20145;-66
2021/10/22 07:43:39;;;;;;;6.38;1.30;;;27.80;31.10;;;;;;5033379;28;20392;-65
2021/10/22 07:46:05;;;;;;;5.00;1.52;;;25.80;33.70;;;;;;5033491;28;20029;-67
2021/10/22 07:48:32;;;;;;;5.28;1.58;;;24.40;35.90;;;;;;5051807;28;20024;-66
2021/10/22 07:50:58;;;;;;;4.43;2.00;;;23.60;37.40;;;;;;5068315;28;20032;-67
2021/10/22 07:53:24;;;;;;;2.97;1.60;;;22.90;38.70;;;;;;5071210;28;20435;-66
2021/10/22 07:55:50;;;;;;;2.67;1.30;;;22.20;39.90;;;;;;5053216;28;20092;-67
2021/10/22 07:58:16;;;;;;;5.55;1.67;;;22.00;40.50;;;;;;5070635;28;20024;-67
2021/10/22 08:00:42;;;;;;;14.18;1.77;;;21.80;40.90;;;;;;5069928;28;20472;-65
2021/10/22 08:03:08;;;;;;;4.15;1.30;;;21.40;41.40;;;;;;5070466;28;20550;-67
2021/10/22 08:05:35;;;;;;;6.13;1.60;;;21.30;41.90;;;;;;5070430;28;20021;-66
2021/10/22 08:08:03;;;;;;;3.80;1.27;;;21.20;42.00;;;;;;5069746;28;20025;-65
2021/10/22 08:10:29;;;;;;;4.88;1.30;;;21.00;42.30;;;;;;5071474;28;20374;-67
2021/10/22 08:12:55;;;;;;;3.92;1.48;;;20.70;42.50;;;;;;5071133;28;20021;-65
2021/10/22 08:15:20;;;;;;;4.68;1.50;;;20.40;43.30;;;;;;5071859;28;20076;-65
2021/10/22 08:17:46;;;;;;;4.18;1.40;;;20.40;43.60;;;;;;5065917;28;20098;-66
2021/10/22 08:20:18;;;;;;;6.43;1.60;;;20.20;43.90;;;;;;5064783;28;20051;-71
2021/10/22 08:22:44;;;;;;;3.28;1.30;;;20.10;44.20;;;;;;5067787;28;20070;-68
2021/10/22 08:25:14;;;;;;;5.57;1.40;;;20.00;44.40;;;;;;5070412;28;20377;-66
2021/10/22 08:27:50;;;;;;;4.57;1.40;;;19.80;44.70;;;;;;5070328;28;20471;-69
2021/10/22 08:30:23;;;;;;;6.13;1.48;;;19.60;45.20;;;;;;5067316;28;20036;-67
2021/10/22 08:32:55;;;;;;;3.30;1.40;;;19.60;45.40;;;;;;5069210;28;20108;-66
2021/10/22 08:35:28;;;;;;;2.92;1.17;;;19.60;45.40;;;;;;5068915;28;20036;-69
2021/10/22 08:37:55;;;;;;;4.85;1.30;;;19.60;45.50;;;;;;5069328;28;20033;-68
2021/10/22 08:40:21;;;;;;;1.95;1.20;;;19.50;45.60;;;;;;5068504;28;20059;-66
2021/10/22 08:42:49;;;;;;;2.08;1.15;;;19.40;45.80;;;;;;5069944;28;20029;-66
2021/10/22 08:45:16;;;;;;;3.45;1.45;;;19.30;46.00;;;;;;5069651;28;20024;-67
2021/10/22 08:47:42;;;;;;;3.83;1.42;;;19.30;46.10;;;;;;5066707;28;20167;-64
2021/10/22 08:50:12;;;;;;;3.88;1.95;;;19.40;46.10;;;;;;5057768;28;20072;-67
2021/10/22 08:52:40;;;;;;;9.30;3.50;;;19.50;46.00;;;;;;5032129;28;20029;-66
2021/10/22 08:55:10;;;;;;;8.07;1.90;;;19.60;45.60;;;;;;5051231;28;20048;-68
2021/10/22 08:57:44;;;;;;;4.63;1.20;;;19.60;45.40;;;;;;5050551;28;20048;-70
2021/10/22 09:00:13;;;;;;;2.10;1.20;;;19.60;45.30;;;;;;5032798;28;20117;-69
2021/10/22 09:02:40;;;;;;;2.30;1.35;;;19.60;45.40;;;;;;5047477;28;20025;-68
2021/10/22 09:05:14;;;;;;;4.35;1.50;;;19.60;45.70;;;;;;5048579;28;20028;-67
2021/10/22 09:07:45;;;;;;;5.10;1.35;;;19.70;45.80;;;;;;5049979;28;20033;-66
2021/10/22 09:10:21;;;;;;;5.30;1.40;;;19.90;45.00;;;;;;5032520;28;20031;-66
2021/10/22 09:12:54;;;;;;;2.88;1.40;;;19.90;45.20;;;;;;5049478;28;20286;-68
2021/10/22 09:15:24;;;;;;;2.80;1.27;;;20.00;44.80;;;;;;5051025;28;20041;-65
2021/10/22 09:17:51;;;;;;;4.05;1.75;;;20.00;44.40;;;;;;5031469;28;20648;-68
2021/10/22 09:20:18;;;;;;;1.98;1.10;;;19.70;44.60;;;;;;5036417;28;20078;-68
2021/10/22 09:22:49;;;;;;;4.28;1.40;;;19.50;44.90;;;;;;5035453;28;20493;-68
2021/10/22 09:25:21;;;;;;;2.85;1.20;;;19.30;46.00;;;;;;5054452;28;20049;-64
2021/10/22 09:27:57;;;;;;;2.47;1.13;;;19.20;46.00;;;;;;5051948;28;20075;-65
2021/10/22 09:30:45;;;;;;;4.55;1.10;;;19.20;46.20;;;;;;5053686;28;20040;-68
2021/10/22 09:33:10;;;;;;;6.07;1.58;;;19.20;45.70;;;;;;5052919;28;20075;-64
2021/10/22 09:35:43;;;;;;;2.00;0.93;;;18.90;47.00;;;;;;5053170;28;20031;-64
2021/10/22 09:38:21;;;;;;;4.20;1.23;;;18.70;47.10;;;;;;5054028;28;20039;-64
2021/10/22 09:40:55;;;;;;;2.78;1.08;;;18.60;47.70;;;;;;5053369;28;20029;-62
2021/10/22 09:43:35;;;;;;;3.35;1.30;;;18.60;47.60;;;;;;5053517;28;20037;-63
2021/10/22 09:46:16;;;;;;;6.20;1.50;;;18.60;47.50;;;;;;5053939;28;20549;-63
2021/10/22 09:48:46;;;;;;;3.75;1.20;;;18.60;47.50;;;;;;5036156;28;20108;-62
2021/10/22 09:51:23;;;;;;;6.03;1.55;;;18.60;47.80;;;;;;5072391;28;20096;-63
2021/10/22 09:53:50;;;;;;;3.65;1.60;;;18.50;49.00;;;;;;5072060;28;20037;-63
2021/10/22 09:56:24;;;;;;;3.65;1.50;;;18.60;47.30;;;;;;5073495;28;20477;-63
2021/10/22 09:59:00;;;;;;;7.93;1.33;;;18.70;47.40;;;;;;5071946;28;20106;-62
2021/10/22 10:01:30;;;;;;;3.95;1.40;;;18.70;47.40;;;;;;5072568;28;20024;-63
2021/10/22 10:03:58;;;;;;;3.88;1.65;;;18.70;47.30;;;;;;5072475;28;20029;-63
2021/10/22 10:06:24;;;;;;;7.13;1.65;;;18.60;47.20;;;;;;5073619;28;20023;-61
2021/10/22 10:08:50;;;;;;;3.28;1.48;;;18.60;47.30;;;;;;5072934;28;20235;-62
2021/10/22 10:11:16;;;;;;;5.75;1.30;;;18.60;47.30;;;;;;5072445;28;20024;-62
2021/10/22 10:13:42;;;;;;;3.70;1.40;;;18.50;47.80;;;;;;5070672;28;20043;-63
2021/10/22 10:16:09;;;;;;;2.90;1.30;;;18.40;48.00;;;;;;5071126;28;20082;-62
2021/10/22 10:18:55;;;;;;;6.07;1.65;;;18.30;48.10;;;;;;5073127;28;20029;-62
2021/10/22 10:21:22;;;;;;;4.43;2.00;;;18.20;48.30;;;;;;5073219;28;20024;-62
2021/10/22 10:23:50;;;;;;;3.30;1.55;;;18.30;48.30;;;;;;5072637;28;20033;-63
2021/10/22 10:26:22;;;;;;;4.38;1.95;;;18.20;48.40;;;;;;5072026;28;20021;-63
2021/10/22 10:28:51;;;;;;;2.97;1.42;;;18.20;48.50;;;;;;5071054;28;20140;-63
2021/10/22 10:31:32;;;;;;;3.75;1.65;;;18.10;48.70;;;;;;5073186;28;20020;-63
2021/10/22 10:34:00;;;;;;;3.78;1.65;;;18.00;49.30;;;;;;5071855;28;20054;-62
2021/10/22 10:36:46;;;;;;;3.63;1.83;;;18.00;49.30;;;;;;5072978;28;20074;-62
2021/10/22 10:39:13;;;;;;;6.07;2.22;;;17.90;49.60;;;;;;5071674;28;20032;-64
2021/10/22 10:41:39;;;;;;;4.78;1.60;;;17.90;49.90;;;;;;5071171;28;20039;-61
2021/10/22 10:44:40;;;;;;;6.32;1.42;;;17.70;50.60;;;;;;5073198;28;20028;-61
2021/10/22 10:47:26;;;;;;;5.22;1.25;;;17.60;51.40;;;;;;5029875;28;20120;-62
2021/10/22 10:49:52;;;;;;;5.40;1.60;;;17.60;51.30;;;;;;5050475;28;20402;-62
2021/10/22 10:52:49;;;;;;;3.83;1.73;;;17.70;50.60;;;;;;5052695;28;20355;-62
2021/10/22 10:57:54;;;;;;;3.15;1.80;;;17.90;50.60;;;;;;5052425;28;20033;-62
2021/10/22 11:00:30;;;;;;;5.20;1.52;;;18.00;50.10;;;;;;5052786;28;20036;-63
2021/10/22 11:03:02;;;;;;;3.58;1.55;;;18.10;49.80;;;;;;5052593;28;20512;-62
2021/10/22 11:08:30;;;;;;;7.20;2.10;;;18.10;49.80;;;;;;5052439;28;20071;-62
2021/10/22 11:10:59;;;;;;;4.22;1.92;;;18.20;49.80;;;;;;5051967;28;20029;-61
2021/10/22 11:13:25;;;;;;;3.55;1.50;;;18.20;49.60;;;;;;5051807;28;20462;-62
2021/10/22 11:15:54;;;;;;;5.38;2.00;;;18.30;49.50;;;;;;5033432;28;20172;-62
2021/10/22 11:18:21;;;;;;;4.65;1.88;;;18.20;49.60;;;;;;5034043;28;20458;-63
2021/10/22 11:20:50;;;;;;;3.58;1.50;;;18.00;49.80;;;;;;5051427;28;20374;-62
2021/10/22 11:23:16;;;;;;;3.75;1.83;;;18.00;49.80;;;;;;5034237;28;20033;-62
2021/10/22 11:25:42;;;;;;;9.73;2.17;;;18.00;50.10;;;;;;5051303;28;20405;-63
2021/10/22 11:28:12;;;;;;;7.05;2.58;;;18.00;49.80;;;;;;5052442;28;20440;-63
2021/10/22 11:30:53;;;;;;;3.90;1.70;;;18.00;49.80;;;;;;5051257;28;20033;-61
2021/10/22 11:33:19;;;;;;;4.13;2.08;;;17.90;49.80;;;;;;5033615;28;20079;-64
2021/10/22 11:35:46;;;;;;;3.30;1.63;;;18.00;49.70;;;;;;5033462;28;20036;-62
2021/10/22 11:38:12;;;;;;;5.40;1.60;;;17.90;50.40;;;;;;5034104;28;20037;-63
2021/10/22 11:40:39;;;;;;;7.30;2.10;;;17.90;50.00;;;;;;5051029;28;20480;-61
2021/10/22 11:43:08;;;;;;;2.95;1.52;;;17.80;50.00;;;;;;5034057;28;20031;-61
2021/10/22 11:45:34;;;;;;;6.78;2.20;;;17.80;50.20;;;;;;5033559;28;20025;-61
2021/10/22 11:48:00;;;;;;;5.30;2.35;;;17.90;49.90;;;;;;5033929;28;20028;-62
2021/10/22 11:50:28;;;;;;;3.45;1.70;;;17.90;49.80;;;;;;5051760;28;20071;-62
2021/10/22 11:53:09;;;;;;;4.72;1.60;;;18.00;49.50;;;;;;5032812;28;20036;-61
2021/10/22 11:55:35;;;;;;;3.00;1.50;;;18.00;49.80;;;;;;5033269;28;20036;-62
2021/10/22 11:58:05;;;;;;;6.18;2.08;;;17.90;49.70;;;;;;5051389;28;20032;-63
2021/10/22 12:00:31;;;;;;;3.72;2.15;;;17.80;49.60;;;;;;5032657;28;20033;-63
2021/10/22 12:02:57;;;;;;;5.13;1.90;;;17.90;50.50;;;;;;5051256;28;20036;-63
2021/10/22 12:05:25;;;;;;;5.90;1.42;;;17.70;50.20;;;;;;5051433;28;20114;-62
2021/10/22 12:07:54;;;;;;;5.40;1.15;;;17.70;50.50;;;;;;5033087;28;20720;-62
2021/10/22 12:10:22;;;;;;;6.57;2.10;;;17.70;50.80;;;;;;5051157;28;20060;-63
2021/10/22 12:12:51;;;;;;;7.45;1.65;;;17.50;51.00;;;;;;5050651;28;20033;-63
2021/10/22 12:15:32;;;;;;;5.80;2.05;;;17.40;51.10;;;;;;5033520;28;20097;-62
2021/10/22 12:18:00;;;;;;;5.88;2.38;;;17.30;51.50;;;;;;5051301;28;20029;-62
2021/10/22 12:20:32;;;;;;;7.15;1.75;;;17.30;51.90;;;;;;5033458;28;20021;-62
2021/10/22 12:22:59;;;;;;;6.90;1.58;;;17.20;51.40;;;;;;5033663;28;20025;-61
2021/10/22 12:25:30;;;;;;;4.72;1.63;;;17.30;51.60;;;;;;5033052;28;20025;-61
2021/10/22 12:27:57;;;;;;;3.58;1.38;;;17.20;51.40;;;;;;5050858;28;20209;-63
2021/10/22 12:30:25;;;;;;;5.07;1.70;;;17.20;51.90;;;;;;5033201;28;20374;-61
2021/10/22 12:32:54;;;;;;;3.28;1.38;;;17.20;51.60;;;;;;5050559;28;20134;-62
2021/10/22 12:35:34;;;;;;;2.63;1.20;;;17.10;52.50;;;;;;5050923;28;20434;-62
2021/10/22 12:38:13;;;;;;;2.80;1.50;;;17.10;52.50;;;;;;5051397;28;20033;-63
2021/10/22 12:40:45;;;;;;;4.82;1.50;;;17.10;51.80;;;;;;5032724;28;20033;-62
2021/10/22 12:43:32;;;;;;;3.53;1.90;;;17.10;51.80;;;;;;5033319;28;20037;-62
2021/10/22 12:46:09;;;;;;;10.35;2.28;;;17.20;51.70;;;;;;5050867;28;20071;-63
2021/10/22 12:48:43;;;;;;;7.40;2.97;;;17.40;51.60;;;;;;5032510;28;20392;-62
2021/10/22 12:51:10;;;;;;;3.63;1.63;;;17.40;51.30;;;;;;5050526;28;20045;-61
2021/10/22 12:53:41;;;;;;;3.53;1.60;;;17.40;51.60;;;;;;5018836;28;20043;-61
2021/10/22 12:56:09;;;;;;;5.15;1.90;;;17.20;51.50;;;;;;5055366;28;20032;-62
2021/10/22 12:58:37;;;;;;;4.68;1.38;;;17.10;51.90;;;;;;5036487;28;20035;-61
2021/10/22 13:01:15;;;;;;;2.67;1.30;;;17.00;52.00;;;;;;5036663;28;20033;-62
2021/10/22 13:03:43;;;;;;;3.22;1.35;;;17.10;52.00;;;;;;5054237;28;20063;-61